createdAt,value
2016-08-16T06:05:42.922Z,1014.17
2016-08-16T06:06:42.907Z,1014.17
2016-08-16T06:07:42.889Z,1014.17
2016-08-16T06:08:42.876Z,1014.17
2016-08-16T06:09:42.855Z,1014.16
2016-08-16T06:10:42.847Z,1014.13
2016-08-16T06:11:42.829Z,1014.12
2016-08-16T06:12:42.816Z,1014.15
2016-08-16T06:13:42.799Z,1014.12
2016-08-16T06:14:42.784Z,1014.12
2016-08-16T06:15:42.769Z,1014.11
2016-08-16T06:16:42.759Z,1014.13
2016-08-16T06:17:42.744Z,1014.14
2016-08-16T06:18:42.727Z,1014.15
2016-08-16T06:19:42.711Z,1014.14
2016-08-16T06:20:42.695Z,1014.11
2016-08-16T06:21:42.678Z,1014.11
2016-08-16T06:22:42.665Z,1014.11
2016-08-16T06:23:42.648Z,1014.12
2016-08-16T06:24:42.639Z,1014.15
2016-08-16T06:25:42.620Z,1014.11
2016-08-16T06:26:42.607Z,1014.1
2016-08-16T06:27:42.590Z,1014.08
2016-08-16T06:28:42.577Z,1014.14
2016-08-16T06:29:42.571Z,1014.11
2016-08-16T06:30:42.549Z,1014.11
2016-08-16T06:31:42.541Z,1014.13
2016-08-16T06:32:42.517Z,1014.16
2016-08-16T06:33:42.504Z,1014.19
2016-08-16T06:34:42.489Z,1014.22
2016-08-16T06:35:42.476Z,1014.22
2016-08-16T06:36:42.459Z,1014.19
2016-08-16T06:37:42.453Z,1014.21
2016-08-16T06:38:42.428Z,1014.18
2016-08-16T06:39:42.420Z,1014.2
2016-08-16T06:40:42.396Z,1014.2
2016-08-16T06:41:42.387Z,1014.23
2016-08-16T06:42:42.373Z,1014.24
2016-08-16T06:43:42.361Z,1014.24
2016-08-16T06:44:42.347Z,1014.26
2016-08-16T06:45:42.330Z,1014.31
2016-08-16T06:46:42.320Z,1014.32
2016-08-16T06:47:42.303Z,1014.31
2016-08-16T06:48:42.287Z,1014.32
2016-08-16T06:49:42.275Z,1014.28
2016-08-16T06:50:42.260Z,1014.29
2016-08-16T06:51:42.245Z,1014.32
2016-08-16T06:52:42.238Z,1014.29
2016-08-16T06:53:42.217Z,1014.29
2016-08-16T06:54:42.213Z,1014.31
2016-08-16T06:55:42.190Z,1014.3
2016-08-16T06:56:42.182Z,1014.26
2016-08-16T06:57:42.160Z,1014.28
2016-08-16T06:58:42.147Z,1014.28
2016-08-16T06:59:42.136Z,1014.32
2016-08-16T07:00:42.117Z,1014.3
2016-08-16T07:01:42.103Z,1014.28
2016-08-16T07:02:42.089Z,1014.29
2016-08-16T07:03:42.080Z,1014.26
2016-08-16T07:04:42.065Z,1014.27
2016-08-16T07:05:42.050Z,1014.24
2016-08-16T07:06:42.038Z,1014.27
2016-08-16T07:07:42.019Z,1014.28
2016-08-16T07:08:42.009Z,1014.27
2016-08-16T07:09:42.005Z,1014.26
2016-08-16T07:10:41.981Z,1014.25
2016-08-16T07:11:41.971Z,1014.22
2016-08-16T07:12:41.951Z,1014.22
2016-08-16T07:13:41.938Z,1014.23
2016-08-16T07:14:41.931Z,1014.19
2016-08-16T07:15:41.919Z,1014.18
2016-08-16T07:16:41.908Z,1014.17
2016-08-16T07:17:41.886Z,1014.15
2016-08-16T07:18:41.870Z,1014.15
2016-08-16T07:19:41.858Z,1014.13
2016-08-16T07:20:41.847Z,1014.2
2016-08-16T07:21:41.829Z,1014.3
2016-08-16T07:22:41.820Z,1014.55
2016-08-16T07:23:41.807Z,1014.83
2016-08-16T07:24:41.792Z,1014.88
2016-08-16T07:25:41.777Z,1014.84
2016-08-16T07:26:41.770Z,1014.85
2016-08-16T07:27:41.757Z,1014.76
2016-08-16T07:28:41.742Z,1014.75
2016-08-16T07:29:41.735Z,1014.82
2016-08-16T07:30:41.730Z,1014.83
2016-08-16T07:31:41.721Z,1014.83
2016-08-16T07:32:41.701Z,1014.8
2016-08-16T07:33:41.694Z,1014.81
2016-08-16T07:34:41.688Z,1014.89
2016-08-16T07:35:41.676Z,1014.89
2016-08-16T07:36:41.663Z,1014.91
2016-08-16T07:37:41.660Z,1014.79
2016-08-16T07:38:41.670Z,1014.66
2016-08-16T07:39:41.650Z,1014.38
2016-08-16T07:40:41.651Z,1014.52
2016-08-16T07:41:41.636Z,1014.5
2016-08-16T07:42:41.629Z,1014.47
2016-08-16T07:43:41.625Z,1014.55
2016-08-16T07:44:41.618Z,1014.55
2016-08-16T07:45:41.621Z,1014.59
2016-08-16T07:46:41.606Z,1014.58
2016-08-16T07:47:41.606Z,1014.6
2016-08-16T07:48:41.604Z,1014.57
2016-08-16T07:49:41.598Z,1014.58
2016-08-16T07:50:41.600Z,1014.55
2016-08-16T07:51:41.600Z,1014.61
2016-08-16T07:52:41.589Z,1014.6
2016-08-16T07:53:41.588Z,1014.63
2016-08-16T07:54:41.591Z,1014.64
2016-08-16T07:55:41.586Z,1014.63
2016-08-16T07:56:41.590Z,1014.64
2016-08-16T07:57:41.590Z,1014.65
2016-08-16T07:58:41.580Z,1014.63
2016-08-16T07:59:41.576Z,1014.63
2016-08-16T08:00:41.580Z,1014.62
2016-08-16T08:01:41.577Z,1014.58
2016-08-16T08:02:41.578Z,1014.64
2016-08-16T08:03:41.582Z,1014.63
2016-08-16T08:04:41.581Z,1014.64
2016-08-16T08:05:41.581Z,1014.64
2016-08-16T08:06:41.581Z,1014.64
2016-08-16T08:07:41.579Z,1014.69
2016-08-16T08:08:41.580Z,1014.67
2016-08-16T08:09:41.688Z,1014.65
2016-08-16T08:10:41.581Z,1014.63
2016-08-16T08:11:41.578Z,1014.64
2016-08-16T08:12:41.578Z,1014.62
2016-08-16T08:13:41.578Z,1014.63
2016-08-16T08:14:41.586Z,1014.6
2016-08-16T08:15:41.579Z,1014.59
2016-08-16T08:16:41.580Z,1014.6
2016-08-16T08:17:41.589Z,1014.54
2016-08-16T08:18:41.580Z,1014.54
2016-08-16T08:19:41.591Z,1014.56
2016-08-16T08:20:41.583Z,1014.52
2016-08-16T08:21:41.590Z,1014.52
2016-08-16T08:22:41.585Z,1014.54
2016-08-16T08:23:41.584Z,1014.48
2016-08-16T08:24:41.590Z,1014.46
2016-08-16T08:25:41.595Z,1014.43
2016-08-16T08:26:41.589Z,1014.46
2016-08-16T08:27:41.591Z,1014.42
2016-08-16T08:28:41.598Z,1014.43
2016-08-16T08:29:41.602Z,1014.38
2016-08-16T08:30:41.599Z,1014.37
2016-08-16T08:31:41.600Z,1014.39
2016-08-16T08:32:41.599Z,1014.4
2016-08-16T08:33:41.598Z,1014.37
2016-08-16T08:34:41.602Z,1014.39
2016-08-16T08:35:41.604Z,1014.33
2016-08-16T08:36:41.605Z,1014.3
2016-08-16T08:37:41.606Z,1014.26
2016-08-16T08:38:41.606Z,1014.24
2016-08-16T08:39:41.608Z,1014.22
2016-08-16T08:40:41.620Z,1014.24
2016-08-16T08:41:41.617Z,1014.21
2016-08-16T08:42:41.620Z,1014.21
2016-08-16T08:43:41.622Z,1014.24
2016-08-16T08:44:41.619Z,1014.23
2016-08-16T08:45:41.621Z,1014.23
2016-08-16T08:46:41.619Z,1014.23
2016-08-16T08:47:41.632Z,1014.18
2016-08-16T08:48:41.630Z,1014.14
2016-08-16T08:49:41.628Z,1014.15
2016-08-16T08:50:41.628Z,1014.13
2016-08-16T08:51:41.638Z,1014.18
2016-08-16T08:52:41.632Z,1014.15
2016-08-16T08:53:41.637Z,1014.13
2016-08-16T08:54:41.639Z,1014.06
2016-08-16T08:55:41.646Z,1014.14
2016-08-16T08:56:41.647Z,1014.13
2016-08-16T08:57:41.651Z,1014.13
2016-08-16T08:58:41.656Z,1014.12
2016-08-16T08:59:41.655Z,1014.08
2016-08-16T09:00:41.656Z,1014.12
2016-08-16T09:01:41.660Z,1013.97
2016-08-16T09:02:41.666Z,1013.95
2016-08-16T09:03:41.666Z,1014.05
2016-08-16T09:04:41.695Z,1014.07
2016-08-16T09:05:41.666Z,1014.14
2016-08-16T09:06:41.677Z,1014.12
2016-08-16T09:07:41.678Z,1014.12
2016-08-16T09:08:41.674Z,1014.04
2016-08-16T09:09:41.676Z,1014.03
2016-08-16T09:10:41.686Z,1014.06
2016-08-16T09:11:41.683Z,1014.05
2016-08-16T09:12:41.687Z,1014
2016-08-16T09:13:41.692Z,1014.01
2016-08-16T09:14:41.693Z,1014.03
2016-08-16T09:15:41.695Z,1013.94
2016-08-16T09:16:41.696Z,1013.9
2016-08-16T09:17:41.813Z,1013.9
2016-08-16T09:18:41.697Z,1013.89
2016-08-16T09:19:41.709Z,1014.01
2016-08-16T09:20:41.707Z,1013.92
2016-08-16T09:21:41.703Z,1014.02
2016-08-16T09:22:41.701Z,1014.04
2016-08-16T09:23:41.707Z,1013.89
2016-08-16T09:24:41.712Z,1013.99
2016-08-16T09:25:41.706Z,1014
2016-08-16T09:26:41.707Z,1013.93
2016-08-16T09:27:41.698Z,1013.92
2016-08-16T09:28:41.699Z,1013.93
2016-08-16T09:29:41.697Z,1013.92
2016-08-16T09:30:41.698Z,1013.92
2016-08-16T09:31:41.697Z,1013.91
2016-08-16T09:32:41.706Z,1013.96
2016-08-16T09:33:41.711Z,1013.91
2016-08-16T09:34:41.703Z,1013.93
2016-08-16T09:35:41.710Z,1013.9
2016-08-16T09:36:41.706Z,1013.87
2016-08-16T09:37:41.706Z,1013.93
2016-08-16T09:38:41.703Z,1013.88
2016-08-16T09:39:41.708Z,1013.92
2016-08-16T09:40:41.709Z,1013.95
2016-08-16T09:41:41.706Z,1013.95
2016-08-16T09:42:41.722Z,1013.94
2016-08-16T09:43:41.718Z,1013.89
2016-08-16T09:44:41.718Z,1013.89
2016-08-16T09:45:41.715Z,1013.93
2016-08-16T09:46:41.718Z,1013.87
2016-08-16T09:47:41.719Z,1013.9
2016-08-16T09:48:41.727Z,1013.9
2016-08-16T09:49:41.731Z,1013.88
2016-08-16T09:50:41.731Z,1013.86
2016-08-16T09:51:41.731Z,1013.88
2016-08-16T09:52:41.735Z,1013.86
2016-08-16T09:53:41.732Z,1013.79
2016-08-16T09:54:41.734Z,1013.8
2016-08-16T09:55:41.737Z,1013.78
2016-08-16T09:56:41.739Z,1013.79
2016-08-16T09:57:41.737Z,1013.74
2016-08-16T09:58:41.741Z,1013.77
2016-08-16T09:59:41.750Z,1013.72
2016-08-16T10:00:41.742Z,1013.74
2016-08-16T10:01:41.744Z,1013.77
2016-08-16T10:02:41.742Z,1013.75
2016-08-16T10:03:41.751Z,1013.75
2016-08-16T10:04:41.748Z,1013.74
2016-08-16T10:05:41.747Z,1013.74
2016-08-16T10:06:41.750Z,1013.74
2016-08-16T10:07:41.746Z,1013.7
2016-08-16T10:08:41.747Z,1013.73
2016-08-16T10:09:41.754Z,1013.68
2016-08-16T10:10:41.762Z,1013.7
2016-08-16T10:11:41.759Z,1013.7
2016-08-16T10:12:41.756Z,1013.67
2016-08-16T10:13:41.761Z,1013.64
2016-08-16T10:14:41.747Z,1013.65
2016-08-16T10:15:41.762Z,1013.64
2016-08-16T10:16:41.750Z,1013.55
2016-08-16T10:17:41.748Z,1013.56
2016-08-16T10:18:41.751Z,1013.6
2016-08-16T10:19:41.749Z,1013.57
2016-08-16T10:20:41.749Z,1013.59
2016-08-16T10:21:41.743Z,1013.54
2016-08-16T10:22:41.741Z,1013.54
2016-08-16T10:23:41.739Z,1013.53
2016-08-16T10:24:41.739Z,1013.55
2016-08-16T10:25:41.737Z,1013.49
2016-08-16T10:26:41.740Z,1013.51
2016-08-16T10:27:41.735Z,1013.45
2016-08-16T10:28:41.729Z,1013.52
2016-08-16T10:29:41.729Z,1013.52
2016-08-16T10:30:41.729Z,1013.49
2016-08-16T10:31:41.717Z,1013.44
2016-08-16T10:32:41.716Z,1013.41
2016-08-16T10:33:41.715Z,1013.45
2016-08-16T10:34:41.708Z,1013.42
2016-08-16T10:35:41.710Z,1013.41
2016-08-16T10:36:41.707Z,1013.39
2016-08-16T10:37:41.700Z,1013.4
2016-08-16T10:38:41.696Z,1013.4
2016-08-16T10:39:41.693Z,1013.43
2016-08-16T10:40:41.688Z,1013.41
2016-08-16T10:41:41.687Z,1013.34
2016-08-16T10:42:41.680Z,1013.35
2016-08-16T10:43:41.680Z,1013.37
2016-08-16T10:44:41.676Z,1013.34
2016-08-16T10:45:41.671Z,1013.4
2016-08-16T10:46:41.666Z,1013.38
2016-08-16T10:47:41.672Z,1013.42
2016-08-16T10:48:41.671Z,1013.4
2016-08-16T10:49:41.657Z,1013.39
2016-08-16T10:50:41.648Z,1013.35
2016-08-16T10:51:41.647Z,1013.35
2016-08-16T10:52:41.647Z,1013.36
2016-08-16T10:53:41.640Z,1013.31
2016-08-16T10:54:41.635Z,1013.31
2016-08-16T10:55:41.640Z,1013.35
2016-08-16T10:56:41.627Z,1013.31
2016-08-16T10:57:41.622Z,1013.31
2016-08-16T10:58:41.630Z,1013.3
2016-08-16T10:59:41.622Z,1013.28
2016-08-16T11:00:41.610Z,1013.26
2016-08-16T11:01:41.609Z,1013.26
2016-08-16T11:02:41.599Z,1013.28
2016-08-16T11:03:41.599Z,1013.24
2016-08-16T11:04:41.595Z,1013.21
2016-08-16T11:05:41.590Z,1013.18
2016-08-16T11:06:41.591Z,1013.17
2016-08-16T11:07:41.590Z,1013.19
2016-08-16T11:08:41.575Z,1013.16
2016-08-16T11:09:41.579Z,1013.2
2016-08-16T11:10:41.570Z,1013.22
2016-08-16T11:11:41.565Z,1013.17
2016-08-16T11:12:41.557Z,1013.2
2016-08-16T11:13:41.551Z,1013.21
2016-08-16T11:14:41.547Z,1013.19
2016-08-16T11:15:41.547Z,1013.2
2016-08-16T11:16:41.538Z,1013.17
2016-08-16T11:17:41.536Z,1013.19
2016-08-16T11:18:41.529Z,1013.18
2016-08-16T11:19:41.541Z,1013.18
2016-08-16T11:20:41.515Z,1013.19
2016-08-16T11:21:41.516Z,1013.19
2016-08-16T11:22:41.508Z,1013.15
2016-08-16T11:23:41.503Z,1013.23
2016-08-16T11:24:41.500Z,1013.17
2016-08-16T11:25:41.498Z,1013.16
2016-08-16T11:26:41.485Z,1013.13
2016-08-16T11:27:41.484Z,1013.17
2016-08-16T11:28:41.479Z,1013.1
2016-08-16T11:29:41.474Z,1013.14
2016-08-16T11:30:41.466Z,1013.07
2016-08-16T11:31:41.468Z,1013.06
2016-08-16T11:32:41.458Z,1013
2016-08-16T11:33:41.451Z,1013.04
2016-08-16T11:34:41.450Z,1013.03
2016-08-16T11:35:41.440Z,1013.03
2016-08-16T11:36:41.437Z,1013.02
2016-08-16T11:37:41.438Z,1013.02
2016-08-16T11:38:41.425Z,1013.03
2016-08-16T11:39:41.427Z,1013.08
2016-08-16T11:40:41.418Z,1013.11
2016-08-16T11:41:41.413Z,1013.11
2016-08-16T11:42:41.410Z,1013.07
2016-08-16T11:43:41.408Z,1013.01
2016-08-16T11:44:41.402Z,1012.98
2016-08-16T11:45:41.392Z,1012.95
2016-08-16T11:46:41.389Z,1012.94
2016-08-16T11:47:41.384Z,1012.89
2016-08-16T11:48:41.379Z,1012.96
2016-08-16T11:49:41.379Z,1012.93
2016-08-16T11:50:41.372Z,1012.95
2016-08-16T11:51:41.368Z,1012.93
2016-08-16T11:52:41.368Z,1012.96
2016-08-16T11:53:41.356Z,1012.9
2016-08-16T11:54:41.352Z,1012.89
2016-08-16T11:55:41.349Z,1012.88
2016-08-16T11:56:41.346Z,1012.85
2016-08-16T11:57:41.339Z,1012.87
2016-08-16T11:58:41.338Z,1012.9
2016-08-16T11:59:41.325Z,1012.92
2016-08-16T12:00:41.325Z,1012.87
2016-08-16T12:01:41.318Z,1012.86
2016-08-16T12:02:41.316Z,1012.83
2016-08-16T12:03:41.306Z,1012.85
2016-08-16T12:04:41.310Z,1012.81
2016-08-16T12:05:41.296Z,1012.85
2016-08-16T12:06:41.292Z,1012.83
2016-08-16T12:07:41.290Z,1012.83
2016-08-16T12:08:41.286Z,1012.85
2016-08-16T12:09:41.275Z,1012.86
2016-08-16T12:10:41.292Z,1012.81
2016-08-16T12:11:41.266Z,1012.8
2016-08-16T12:12:41.261Z,1012.79
2016-08-16T12:13:41.359Z,1012.79
2016-08-16T12:14:41.254Z,1012.79
2016-08-16T12:15:41.250Z,1012.78
2016-08-16T12:16:41.242Z,1012.78
2016-08-16T12:17:41.233Z,1012.76
2016-08-16T12:18:41.228Z,1012.74
2016-08-16T12:19:41.230Z,1012.71
2016-08-16T12:20:41.228Z,1012.65
2016-08-16T12:21:41.222Z,1012.67
2016-08-16T12:22:41.205Z,1012.71
2016-08-16T12:23:41.200Z,1012.65
2016-08-16T12:24:41.195Z,1012.66
2016-08-16T12:25:41.191Z,1012.61
2016-08-16T12:26:41.188Z,1012.61
2016-08-16T12:27:41.190Z,1012.61
2016-08-16T12:28:41.176Z,1012.61
2016-08-16T12:29:41.174Z,1012.6
2016-08-16T12:30:41.165Z,1012.56
2016-08-16T12:31:41.163Z,1012.61
2016-08-16T12:32:41.159Z,1012.61
2016-08-16T12:33:41.153Z,1012.63
2016-08-16T12:34:41.158Z,1012.63
2016-08-16T12:35:41.137Z,1012.58
2016-08-16T12:36:41.136Z,1012.6
2016-08-16T12:37:41.137Z,1012.57
2016-08-16T12:38:41.125Z,1012.56
2016-08-16T12:39:41.116Z,1012.57
2016-08-16T12:40:41.119Z,1012.54
2016-08-16T12:41:41.106Z,1012.51
2016-08-16T12:42:41.107Z,1012.49
2016-08-16T12:43:41.104Z,1012.49
2016-08-16T12:44:41.098Z,1012.55
2016-08-16T12:45:41.087Z,1012.5
2016-08-16T12:46:41.080Z,1012.54
2016-08-16T12:47:41.081Z,1012.54
2016-08-16T12:48:41.068Z,1012.58
2016-08-16T12:49:41.068Z,1012.54
2016-08-16T12:50:41.066Z,1012.56
2016-08-16T12:51:41.053Z,1012.56
2016-08-16T12:52:41.048Z,1012.55
2016-08-16T12:53:41.048Z,1012.56
2016-08-16T12:54:41.039Z,1012.56
2016-08-16T12:55:41.031Z,1012.57
2016-08-16T12:56:41.023Z,1012.54
2016-08-16T12:57:41.016Z,1012.57
2016-08-16T12:58:41.035Z,1012.57
2016-08-16T12:59:41.008Z,1012.58
2016-08-16T13:00:41.002Z,1012.56
2016-08-16T13:01:40.998Z,1012.61
2016-08-16T13:02:40.986Z,1012.56
2016-08-16T13:03:40.986Z,1012.63
2016-08-16T13:04:40.977Z,1012.56
2016-08-16T13:05:40.974Z,1012.58
2016-08-16T13:06:40.971Z,1012.53
2016-08-16T13:07:40.966Z,1012.55
2016-08-16T13:08:40.956Z,1012.51
2016-08-16T13:09:40.949Z,1012.5
2016-08-16T13:10:40.963Z,1012.53
2016-08-16T13:11:40.938Z,1012.53
2016-08-16T13:12:40.926Z,1012.55
2016-08-16T13:13:40.976Z,1012.51
2016-08-16T13:14:40.917Z,1012.49
2016-08-16T13:15:40.913Z,1012.5
2016-08-16T13:16:40.905Z,1012.48
2016-08-16T13:17:40.905Z,1012.49
2016-08-16T13:18:40.897Z,1012.44
2016-08-16T13:19:40.888Z,1012.45
2016-08-16T13:20:40.889Z,1012.42
2016-08-16T13:21:40.884Z,1012.39
2016-08-16T13:22:40.878Z,1012.42
2016-08-16T13:23:40.866Z,1012.36
2016-08-16T13:24:40.868Z,1012.44
2016-08-16T13:25:40.858Z,1012.38
2016-08-16T13:26:40.846Z,1012.4
2016-08-16T13:27:40.844Z,1012.43
2016-08-16T13:28:40.834Z,1012.4
2016-08-16T13:29:41.047Z,1012.4
2016-08-16T13:30:40.825Z,1012.4
2016-08-16T13:31:40.835Z,1012.36
2016-08-16T13:32:40.805Z,1012.43
2016-08-16T13:33:40.802Z,1012.37
2016-08-16T13:34:40.794Z,1012.33
2016-08-16T13:35:40.794Z,1012.29
2016-08-16T13:36:40.784Z,1012.27
2016-08-16T13:37:40.778Z,1012.23
2016-08-16T13:38:40.775Z,1012.23
2016-08-16T13:39:40.765Z,1012.22
2016-08-16T13:40:40.762Z,1012.23
2016-08-16T13:41:40.750Z,1012.24
2016-08-16T13:42:40.745Z,1012.21
2016-08-16T13:43:40.741Z,1012.24
2016-08-16T13:44:40.737Z,1012.24
2016-08-16T13:45:40.736Z,1012.2
2016-08-16T13:46:40.723Z,1012.22
2016-08-16T13:47:40.726Z,1012.22
2016-08-16T13:48:40.718Z,1012.2
2016-08-16T13:49:40.709Z,1012.24
2016-08-16T13:50:40.754Z,1012.22
2016-08-16T13:51:40.694Z,1012.21
2016-08-16T13:52:40.696Z,1012.22
2016-08-16T13:53:40.685Z,1012.18
2016-08-16T13:54:40.684Z,1012.21
2016-08-16T13:55:40.676Z,1012.18
2016-08-16T13:56:40.667Z,1012.11
2016-08-16T13:57:40.667Z,1012.17
2016-08-16T13:58:40.654Z,1012.21
2016-08-16T13:59:40.650Z,1012.18
2016-08-16T14:00:40.645Z,1012.16
2016-08-16T14:01:40.637Z,1012.16
2016-08-16T14:02:40.633Z,1012.16
2016-08-16T14:03:40.627Z,1012.12
2016-08-16T14:04:40.618Z,1012.1
2016-08-16T14:05:40.609Z,1012.13
2016-08-16T14:06:40.604Z,1012.09
2016-08-16T14:07:40.609Z,1012.04
2016-08-16T14:08:40.595Z,1012.05
2016-08-16T14:09:40.587Z,1012.08
2016-08-16T14:10:40.578Z,1012.02
2016-08-16T14:11:40.570Z,1012.07
2016-08-16T14:12:40.559Z,1012.04
2016-08-16T14:13:40.559Z,1012.02
2016-08-16T14:14:40.549Z,1012.06
2016-08-16T14:15:40.549Z,1012.04
2016-08-16T14:16:40.536Z,1012.04
2016-08-16T14:17:40.530Z,1012.03
2016-08-16T14:18:40.520Z,1012.03
2016-08-16T14:19:40.517Z,1012.01
2016-08-16T14:20:40.507Z,1011.98
2016-08-16T14:21:40.498Z,1011.96
2016-08-16T14:22:40.490Z,1011.91
2016-08-16T14:23:40.490Z,1011.87
2016-08-16T14:24:40.474Z,1011.86
2016-08-16T14:25:40.495Z,1011.86
2016-08-16T14:26:40.467Z,1011.86
2016-08-16T14:27:40.455Z,1011.85
2016-08-16T14:28:40.449Z,1011.81
2016-08-16T14:29:40.449Z,1011.78
2016-08-16T14:30:40.436Z,1011.76
2016-08-16T14:31:40.429Z,1011.75
2016-08-16T14:32:40.427Z,1011.75
2016-08-16T14:33:40.418Z,1011.72
2016-08-16T14:34:40.418Z,1011.71
2016-08-16T14:35:40.405Z,1011.68
2016-08-16T14:36:40.395Z,1011.73
2016-08-16T14:37:40.398Z,1011.71
2016-08-16T14:38:40.386Z,1011.67
2016-08-16T14:39:40.381Z,1011.7
2016-08-16T14:40:40.372Z,1011.7
2016-08-16T14:41:40.377Z,1011.67
2016-08-16T14:42:40.357Z,1011.71
2016-08-16T14:43:40.358Z,1011.73
2016-08-16T14:44:40.343Z,1011.74
2016-08-16T14:45:40.337Z,1011.75
2016-08-16T14:46:40.340Z,1011.76
2016-08-16T14:47:40.326Z,1011.77
2016-08-16T14:48:40.317Z,1011.73
2016-08-16T14:49:40.313Z,1011.74
2016-08-16T14:50:40.308Z,1011.75
2016-08-16T14:51:40.296Z,1011.69
2016-08-16T14:52:40.300Z,1011.72
2016-08-16T14:53:40.283Z,1011.68
2016-08-16T14:54:40.277Z,1011.71
2016-08-16T14:55:40.279Z,1011.68
2016-08-16T14:56:40.268Z,1011.63
2016-08-16T14:57:40.259Z,1011.62
2016-08-16T14:58:40.252Z,1011.62
2016-08-16T14:59:40.246Z,1011.6
2016-08-16T15:00:40.237Z,1011.6
2016-08-16T15:01:40.236Z,1011.58
2016-08-16T15:02:40.227Z,1011.64
2016-08-16T15:03:40.216Z,1011.64
2016-08-16T15:04:40.246Z,1011.61
2016-08-16T15:05:40.206Z,1011.6
2016-08-16T15:06:40.199Z,1011.6
2016-08-16T15:07:40.187Z,1011.59
2016-08-16T15:08:40.181Z,1011.57
2016-08-16T15:09:40.179Z,1011.54
2016-08-16T15:10:40.168Z,1011.52
2016-08-16T15:11:40.162Z,1011.56
2016-08-16T15:12:40.156Z,1011.56
2016-08-16T15:13:40.148Z,1011.53
2016-08-16T15:14:40.149Z,1011.52
2016-08-16T15:15:40.138Z,1011.51
2016-08-16T15:16:40.132Z,1011.51
2016-08-16T15:17:40.121Z,1011.49
2016-08-16T15:18:40.117Z,1011.48
2016-08-16T15:19:40.108Z,1011.47
2016-08-16T15:20:40.097Z,1011.48
2016-08-16T15:21:40.091Z,1011.43
2016-08-16T15:22:40.088Z,1011.43
2016-08-16T15:23:40.086Z,1011.41
2016-08-16T15:24:40.078Z,1011.41
2016-08-16T15:25:40.065Z,1011.38
2016-08-16T15:26:40.059Z,1011.36
2016-08-16T15:27:40.055Z,1011.34
2016-08-16T15:28:40.047Z,1011.35
2016-08-16T15:29:40.052Z,1011.38
2016-08-16T15:30:40.033Z,1011.34
2016-08-16T15:31:40.025Z,1011.32
2016-08-16T15:32:40.016Z,1011.31
2016-08-16T15:33:40.012Z,1011.32
2016-08-16T15:34:40.008Z,1011.31
2016-08-16T15:35:39.996Z,1011.32
2016-08-16T15:36:40.001Z,1011.29
2016-08-16T15:37:39.986Z,1011.3
2016-08-16T15:38:39.977Z,1011.31
2016-08-16T15:39:39.979Z,1011.29
2016-08-16T15:40:39.966Z,1011.29
2016-08-16T15:41:39.962Z,1011.29
2016-08-16T15:42:39.947Z,1011.27
2016-08-16T15:43:39.947Z,1011.27
2016-08-16T15:44:39.935Z,1011.27
2016-08-16T15:45:39.928Z,1011.27
2016-08-16T15:46:39.916Z,1011.3
2016-08-16T15:47:39.914Z,1011.26
2016-08-16T15:48:39.906Z,1011.26
2016-08-16T15:49:39.908Z,1011.28
2016-08-16T15:50:39.895Z,1011.29
2016-08-16T15:51:39.885Z,1011.26
2016-08-16T15:52:39.876Z,1011.28
2016-08-16T15:53:39.866Z,1011.23
2016-08-16T15:54:39.865Z,1011.21
2016-08-16T15:55:39.851Z,1011.19
2016-08-16T15:56:39.845Z,1011.17
2016-08-16T15:57:39.836Z,1011.16
2016-08-16T15:58:39.829Z,1011.14
2016-08-16T15:59:39.826Z,1011.14
2016-08-16T16:00:39.817Z,1011.09
2016-08-16T16:01:39.812Z,1011.15
2016-08-16T16:02:39.807Z,1011.18
2016-08-16T16:03:39.798Z,1011.17
2016-08-16T16:04:39.786Z,1011.13
2016-08-16T16:05:39.785Z,1011.08
2016-08-16T16:06:39.779Z,1011.11
2016-08-16T16:07:39.762Z,1011.09
2016-08-16T16:08:39.761Z,1011.11
2016-08-16T16:09:39.758Z,1011.1
2016-08-16T16:10:39.744Z,1011.1
2016-08-16T16:11:39.734Z,1011.08
2016-08-16T16:12:39.723Z,1011.06
2016-08-16T16:13:39.715Z,1011.08
2016-08-16T16:14:39.717Z,1011.02
2016-08-16T16:15:39.711Z,1011.04
2016-08-16T16:16:39.708Z,1011.04
2016-08-16T16:17:39.689Z,1011.01
2016-08-16T16:18:39.679Z,1010.95
2016-08-16T16:19:39.799Z,1011
2016-08-16T16:20:39.669Z,1011
2016-08-16T16:21:39.658Z,1011.01
2016-08-16T16:22:39.654Z,1010.98
2016-08-16T16:23:39.638Z,1010.95
2016-08-16T16:24:39.636Z,1010.93
2016-08-16T16:25:39.626Z,1010.93
2016-08-16T16:26:39.613Z,1010.87
2016-08-16T16:27:39.604Z,1010.9
2016-08-16T16:28:39.597Z,1010.88
2016-08-16T16:29:39.599Z,1010.84
2016-08-16T16:30:39.588Z,1010.86
2016-08-16T16:31:39.578Z,1010.92
2016-08-16T16:32:39.569Z,1010.87
2016-08-16T16:33:39.557Z,1010.91
2016-08-16T16:34:39.547Z,1010.86
2016-08-16T16:35:39.543Z,1010.88
2016-08-16T16:36:39.528Z,1010.9
2016-08-16T16:37:39.527Z,1010.88
2016-08-16T16:38:39.511Z,1010.92
2016-08-16T16:39:39.510Z,1010.88
2016-08-16T16:40:39.497Z,1010.87
2016-08-16T16:41:39.495Z,1010.82
2016-08-16T16:42:39.487Z,1010.83
2016-08-16T16:43:39.474Z,1010.77
2016-08-16T16:44:39.469Z,1010.79
2016-08-16T16:45:39.456Z,1010.78
2016-08-16T16:46:39.450Z,1010.79
2016-08-16T16:47:39.436Z,1010.77
2016-08-16T16:48:39.426Z,1010.79
2016-08-16T16:49:39.418Z,1010.78
2016-08-16T16:50:39.417Z,1010.76
2016-08-16T16:51:39.407Z,1010.78
2016-08-16T16:52:39.395Z,1010.77
2016-08-16T16:53:39.388Z,1010.79
2016-08-16T16:54:39.379Z,1010.79
2016-08-16T16:55:39.370Z,1010.79
2016-08-16T16:56:39.368Z,1010.8
2016-08-16T16:57:39.353Z,1010.8
2016-08-16T16:58:39.344Z,1010.75
2016-08-16T16:59:39.336Z,1010.78
2016-08-16T17:00:39.327Z,1010.78
2016-08-16T17:01:39.320Z,1010.8
2016-08-16T17:02:39.310Z,1010.78
2016-08-16T17:03:39.300Z,1010.8
2016-08-16T17:04:39.300Z,1010.8
2016-08-16T17:05:39.279Z,1010.79
2016-08-16T17:06:39.279Z,1010.78
2016-08-16T17:07:39.264Z,1010.81
2016-08-16T17:08:39.259Z,1010.78
2016-08-16T17:09:39.245Z,1010.8
2016-08-16T17:10:39.235Z,1010.78
2016-08-16T17:11:39.225Z,1010.79
2016-08-16T17:12:39.226Z,1010.81
2016-08-16T17:13:39.206Z,1010.82
2016-08-16T17:14:39.199Z,1010.79
2016-08-16T17:15:39.193Z,1010.8
2016-08-16T17:16:39.180Z,1010.79
2016-08-16T17:17:39.173Z,1010.82
2016-08-16T17:18:39.165Z,1010.81
2016-08-16T17:19:39.151Z,1010.76
2016-08-16T17:20:39.147Z,1010.79
2016-08-16T17:21:39.133Z,1010.78
2016-08-16T17:22:39.138Z,1010.77
2016-08-16T17:23:39.116Z,1010.77
2016-08-16T17:24:39.108Z,1010.77
2016-08-16T17:25:39.099Z,1010.75
2016-08-16T17:26:39.088Z,1010.79
2016-08-16T17:27:39.076Z,1010.78
2016-08-16T17:28:39.076Z,1010.78
2016-08-16T17:29:39.057Z,1010.78
2016-08-16T17:30:39.053Z,1010.77
2016-08-16T17:31:39.035Z,1010.75
2016-08-16T17:32:39.030Z,1010.8
2016-08-16T17:33:39.026Z,1010.8
2016-08-16T17:34:39.018Z,1010.84
2016-08-16T17:35:39.002Z,1010.84
2016-08-16T17:36:38.996Z,1010.81
2016-08-16T17:37:38.994Z,1010.85
2016-08-16T17:38:38.974Z,1010.82
2016-08-16T17:39:38.962Z,1010.81
2016-08-16T17:40:38.952Z,1010.78
2016-08-16T17:41:38.947Z,1010.81
2016-08-16T17:42:38.934Z,1010.8
2016-08-16T17:43:38.931Z,1010.8
2016-08-16T17:44:38.910Z,1010.78
2016-08-16T17:45:38.906Z,1010.82
2016-08-16T17:46:38.898Z,1010.82
2016-08-16T17:47:38.882Z,1010.8
2016-08-16T17:48:38.873Z,1010.8
2016-08-16T17:49:38.872Z,1010.79
2016-08-16T17:50:38.851Z,1010.82
2016-08-16T17:51:38.845Z,1010.78
2016-08-16T17:52:38.837Z,1010.78
2016-08-16T17:53:38.827Z,1010.75
2016-08-16T17:54:38.823Z,1010.74
2016-08-16T17:55:38.801Z,1010.74
2016-08-16T17:56:38.800Z,1010.75
2016-08-16T17:57:38.784Z,1010.71
2016-08-16T17:58:38.773Z,1010.74
2016-08-16T17:59:38.766Z,1010.74
2016-08-16T18:00:38.790Z,1010.71
2016-08-16T18:01:38.741Z,1010.73
2016-08-16T18:02:38.775Z,1010.68
2016-08-16T18:03:38.730Z,1010.68
2016-08-16T18:04:38.715Z,1010.67
2016-08-16T18:05:38.707Z,1010.68
2016-08-16T18:06:38.692Z,1010.64
2016-08-16T18:07:38.689Z,1010.65
2016-08-16T18:08:38.671Z,1010.71
2016-08-16T18:09:38.670Z,1010.67
2016-08-16T18:10:38.654Z,1010.66
2016-08-16T18:11:38.641Z,1010.68
2016-08-16T18:12:38.635Z,1010.68
2016-08-16T18:13:38.629Z,1010.66